sensor_id;sensor_type;location;lat;lon;timestamp;pressure;altitude;pressure_sealevel;temperature;humidity
64679;BME280;51094;53.864;27.676;2023-01-29T00:02:04;99552.50;;;-1.69;74.87
64679;BME280;51094;53.864;27.676;2023-01-29T00:04:31;99635.44;;;-0.96;74.44
64679;BME280;51094;53.864;27.676;2023-01-29T00:06:58;99545.28;;;-1.43;73.57
64679;BME280;51094;53.864;27.676;2023-01-29T00:09:26;99643.84;;;-0.89;73.03
64679;BME280;51094;53.864;27.676;2023-01-29T00:11:53;99626.84;;;-0.90;72.20
64679;BME280;51094;53.864;27.676;2023-01-29T00:14:20;99627.69;;;-0.90;71.05
64679;BME280;51094;53.864;27.676;2023-01-29T00:16:47;99566.25;;;-1.28;70.94
64679;BME280;51094;53.864;27.676;2023-01-29T00:19:14;99630.09;;;-0.84;70.74
64679;BME280;51094;53.864;27.676;2023-01-29T00:21:40;99543.44;;;-1.35;70.56
64679;BME280;51094;53.864;27.676;2023-01-29T00:24:07;99460.03;;;-1.76;70.42
64679;BME280;51094;53.864;27.676;2023-01-29T00:26:34;99629.78;;;-0.67;69.55
64679;BME280;51094;53.864;27.676;2023-01-29T00:29:01;99492.16;;;-1.69;68.76
64679;BME280;51094;53.864;27.676;2023-01-29T00:31:28;99631.53;;;-0.69;68.41
64679;BME280;51094;53.864;27.676;2023-01-29T00:33:56;99608.06;;;-0.88;65.39
64679;BME280;51094;53.864;27.676;2023-01-29T00:36:24;99469.53;;;-1.85;66.94
64679;BME280;51094;53.864;27.676;2023-01-29T00:38:56;99631.44;;;-1.09;64.99
64679;BME280;51094;53.864;27.676;2023-01-29T00:41:29;99619.22;;;-0.92;65.65
64679;BME280;51094;53.864;27.676;2023-01-29T00:44:14;99620.22;;;-1.01;65.01
64679;BME280;51094;53.864;27.676;2023-01-29T00:47:00;99535.38;;;-1.61;64.85
64679;BME280;51094;53.864;27.676;2023-01-29T00:49:28;99602.47;;;-1.08;65.83
64679;BME280;51094;53.864;27.676;2023-01-29T00:51:57;99488.88;;;-1.74;65.99
64679;BME280;51094;53.864;27.676;2023-01-29T00:54:42;99441.63;;;-1.93;65.22
64679;BME280;51094;53.864;27.676;2023-01-29T00:57:09;99445.06;;;-1.95;63.79
64679;BME280;51094;53.864;27.676;2023-01-29T00:59:36;99572.13;;;-1.23;63.83
64679;BME280;51094;53.864;27.676;2023-01-29T01:02:03;99566.22;;;-1.27;63.30
64679;BME280;51094;53.864;27.676;2023-01-29T01:04:49;99437.56;;;-2.05;63.21
64679;BME280;51094;53.864;27.676;2023-01-29T01:07:16;99513.34;;;-1.65;64.28
64679;BME280;51094;53.864;27.676;2023-01-29T01:09:43;99484.03;;;-1.89;63.33
64679;BME280;51094;53.864;27.676;2023-01-29T01:12:29;99551.97;;;-1.36;63.65
64679;BME280;51094;53.864;27.676;2023-01-29T01:14:56;99581.53;;;-1.25;63.57
64679;BME280;51094;53.864;27.676;2023-01-29T01:17:23;99579.75;;;-1.22;64.27
64679;BME280;51094;53.864;27.676;2023-01-29T01:19:50;99590.69;;;-1.15;63.61
64679;BME280;51094;53.864;27.676;2023-01-29T01:22:17;99434.34;;;-2.16;63.46
64679;BME280;51094;53.864;27.676;2023-01-29T01:24:44;99585.63;;;-1.17;63.54
64679;BME280;51094;53.864;27.676;2023-01-29T01:27:11;99592.38;;;-1.14;64.23
64679;BME280;51094;53.864;27.676;2023-01-29T01:29:38;99464.59;;;-1.94;64.32
64679;BME280;51094;53.864;27.676;2023-01-29T01:32:06;99391.94;;;-2.17;64.47
64679;BME280;51094;53.864;27.676;2023-01-29T01:34:33;99577.47;;;-0.89;63.84
64679;BME280;51094;53.864;27.676;2023-01-29T01:37:01;99451.31;;;-1.65;64.18
64679;BME280;51094;53.864;27.676;2023-01-29T01:39:28;99573.25;;;-0.92;63.89
64679;BME280;51094;53.864;27.676;2023-01-29T01:41:55;99579.25;;;-0.94;63.53
64679;BME280;51094;53.864;27.676;2023-01-29T01:44:51;99580.09;;;-0.94;64.38
64679;BME280;51094;53.864;27.676;2023-01-29T01:47:23;99573.47;;;-1.04;64.32
64679;BME280;51094;53.864;27.676;2023-01-29T01:49:53;99580.44;;;-1.12;63.88
64679;BME280;51094;53.864;27.676;2023-01-29T01:52:20;99339.25;;;-2.62;64.46
64679;BME280;51094;53.864;27.676;2023-01-29T01:54:48;99572.72;;;-1.09;64.53
64679;BME280;51094;53.864;27.676;2023-01-29T01:57:20;99551.88;;;-1.31;63.80
64679;BME280;51094;53.864;27.676;2023-01-29T01:59:58;99455.06;;;-1.83;64.32
64679;BME280;51094;53.864;27.676;2023-01-29T02:02:42;99449.97;;;-1.83;64.41
64679;BME280;51094;53.864;27.676;2023-01-29T02:05:31;99495.31;;;-1.54;64.22
64679;BME280;51094;53.864;27.676;2023-01-29T02:08:28;99456.66;;;-1.78;64.39
64679;BME280;51094;53.864;27.676;2023-01-29T02:11:14;99546.03;;;-1.36;64.67
64679;BME280;51094;53.864;27.676;2023-01-29T02:13:42;99450.78;;;-1.81;63.76
64679;BME280;51094;53.864;27.676;2023-01-29T02:16:09;99531.59;;;-1.37;63.92
64679;BME280;51094;53.864;27.676;2023-01-29T02:18:36;99507.03;;;-1.43;64.10
64679;BME280;51094;53.864;27.676;2023-01-29T02:29:12;99367.66;;;-2.38;64.62
64679;BME280;51094;53.864;27.676;2023-01-29T02:34:40;99577.06;;;-1.14;64.86
64679;BME280;51094;53.864;27.676;2023-01-29T02:37:38;99572.78;;;-1.12;65.30
64679;BME280;51094;53.864;27.676;2023-01-29T02:40:27;99503.34;;;-1.74;65.88
64679;BME280;51094;53.864;27.676;2023-01-29T02:43:03;99568.72;;;-1.24;65.87
64679;BME280;51094;53.864;27.676;2023-01-29T02:48:07;99624.28;;;-1.38;66.81
64679;BME280;51094;53.864;27.676;2023-01-29T02:50:42;99564.91;;;-1.46;67.16
64679;BME280;51094;53.864;27.676;2023-01-29T02:53:16;99515.09;;;-1.67;67.44
64679;BME280;51094;53.864;27.676;2023-01-29T02:55:50;99545.44;;;-1.52;67.36
64679;BME280;51094;53.864;27.676;2023-01-29T02:58:42;99383.03;;;-2.44;66.99
64679;BME280;51094;53.864;27.676;2023-01-29T03:01:20;99444.56;;;-2.16;67.02
64679;BME280;51094;53.864;27.676;2023-01-29T03:03:52;99281.38;;;-3.04;67.44
64679;BME280;51094;53.864;27.676;2023-01-29T03:06:26;99420.66;;;-2.09;67.54
64679;BME280;51094;53.864;27.676;2023-01-29T03:09:04;99376.34;;;-2.49;67.22
64679;BME280;51094;53.864;27.676;2023-01-29T03:11:45;99519.16;;;-1.57;67.11
64679;BME280;51094;53.864;27.676;2023-01-29T03:14:36;99502.50;;;-1.75;67.31
64679;BME280;51094;53.864;27.676;2023-01-29T03:17:28;99464.63;;;-1.97;66.91
64679;BME280;51094;53.864;27.676;2023-01-29T03:20:00;99506.81;;;-1.78;67.30
64679;BME280;51094;53.864;27.676;2023-01-29T03:22:29;99532.09;;;-1.68;66.74
64679;BME280;51094;53.864;27.676;2023-01-29T03:24:58;99374.06;;;-2.64;67.20
64679;BME280;51094;53.864;27.676;2023-01-29T03:27:50;99493.56;;;-2.00;65.95
64679;BME280;51094;53.864;27.676;2023-01-29T03:30:54;99530.66;;;-1.82;66.68
64679;BME280;51094;53.864;27.676;2023-01-29T03:34:06;99525.47;;;-1.76;65.79
64679;BME280;51094;53.864;27.676;2023-01-29T03:36:52;99451.63;;;-2.33;65.11
64679;BME280;51094;53.864;27.676;2023-01-29T03:39:25;99428.56;;;-2.79;65.17
64679;BME280;51094;53.864;27.676;2023-01-29T03:42:18;99482.03;;;-2.21;64.17
64679;BME280;51094;53.864;27.676;2023-01-29T03:47:32;99514.53;;;-1.83;64.54
64679;BME280;51094;53.864;27.676;2023-01-29T03:53:05;99434.44;;;-2.19;64.74
64679;BME280;51094;53.864;27.676;2023-01-29T03:58:21;99499.34;;;-1.89;65.01
64679;BME280;51094;53.864;27.676;2023-01-29T04:01:01;99284.41;;;-3.39;64.77
64679;BME280;51094;53.864;27.676;2023-01-29T04:08:44;99526.56;;;-1.92;65.19
64679;BME280;51094;53.864;27.676;2023-01-29T04:11:15;99503.75;;;-2.00;64.88
64679;BME280;51094;53.864;27.676;2023-01-29T04:13:44;99505.56;;;-2.07;64.51
64679;BME280;51094;53.864;27.676;2023-01-29T04:16:26;99316.53;;;-3.31;64.43
64679;BME280;51094;53.864;27.676;2023-01-29T04:19:17;99491.44;;;-2.26;64.55
64679;BME280;51094;53.864;27.676;2023-01-29T04:21:46;99494.22;;;-2.43;63.97
64679;BME280;51094;53.864;27.676;2023-01-29T04:24:14;99491.75;;;-2.49;63.85
64679;BME280;51094;53.864;27.676;2023-01-29T04:37:27;99481.28;;;-2.29;62.22
64679;BME280;51094;53.864;27.676;2023-01-29T04:40:07;99522.16;;;-2.37;61.55
64679;BME280;51094;53.864;27.676;2023-01-29T04:42:50;99467.78;;;-2.34;62.16
64679;BME280;51094;53.864;27.676;2023-01-29T04:51:01;99390.47;;;-2.85;62.57
64679;BME280;51094;53.864;27.676;2023-01-29T04:53:42;99452.16;;;-2.14;62.55
64679;BME280;51094;53.864;27.676;2023-01-29T04:59:14;99460.22;;;-1.86;62.89
64679;BME280;51094;53.864;27.676;2023-01-29T05:01:43;99344.16;;;-2.53;62.26
64679;BME280;51094;53.864;27.676;2023-01-29T05:04:12;99286.56;;;-3.10;62.32
64679;BME280;51094;53.864;27.676;2023-01-29T05:06:40;99325.16;;;-2.85;62.77
64679;BME280;51094;53.864;27.676;2023-01-29T05:09:08;99414.16;;;-2.25;63.41
64679;BME280;51094;53.864;27.676;2023-01-29T05:11:35;99448.47;;;-1.96;63.12
64679;BME280;51094;53.864;27.676;2023-01-29T05:14:05;99463.69;;;-1.90;62.64
64679;BME280;51094;53.864;27.676;2023-01-29T05:16:38;99476.63;;;-2.03;63.22
64679;BME280;51094;53.864;27.676;2023-01-29T05:19:11;99336.56;;;-3.09;63.32
64679;BME280;51094;53.864;27.676;2023-01-29T05:21:39;99417.00;;;-2.45;63.46
64679;BME280;51094;53.864;27.676;2023-01-29T05:24:14;99472.47;;;-2.08;63.88
64679;BME280;51094;53.864;27.676;2023-01-29T05:26:43;99314.38;;;-3.02;63.85
64679;BME280;51094;53.864;27.676;2023-01-29T05:29:31;99323.88;;;-3.12;63.08
64679;BME280;51094;53.864;27.676;2023-01-29T05:31:58;99368.34;;;-2.79;63.66
64679;BME280;51094;53.864;27.676;2023-01-29T05:34:25;99408.44;;;-2.39;63.84
64679;BME280;51094;53.864;27.676;2023-01-29T05:36:52;99326.94;;;-2.90;64.15
64679;BME280;51094;53.864;27.676;2023-01-29T05:39:19;99465.66;;;-2.08;63.98
64679;BME280;51094;53.864;27.676;2023-01-29T05:41:46;99468.06;;;-2.00;64.47
64679;BME280;51094;53.864;27.676;2023-01-29T05:44:13;99469.75;;;-1.99;64.16
64679;BME280;51094;53.864;27.676;2023-01-29T05:46:39;99226.16;;;-3.52;64.01
64679;BME280;51094;53.864;27.676;2023-01-29T05:49:07;99405.31;;;-2.56;64.54
64679;BME280;51094;53.864;27.676;2023-01-29T05:51:34;99478.50;;;-2.14;64.67
64679;BME280;51094;53.864;27.676;2023-01-29T05:54:02;99503.09;;;-2.13;64.66
64679;BME280;51094;53.864;27.676;2023-01-29T05:56:29;99481.06;;;-2.15;65.39
64679;BME280;51094;53.864;27.676;2023-01-29T05:58:57;99476.69;;;-2.07;65.32
64679;BME280;51094;53.864;27.676;2023-01-29T06:01:25;99440.03;;;-2.52;64.98
64679;BME280;51094;53.864;27.676;2023-01-29T06:03:54;99477.91;;;-2.29;65.20
64679;BME280;51094;53.864;27.676;2023-01-29T06:06:21;99373.94;;;-3.14;65.11
64679;BME280;51094;53.864;27.676;2023-01-29T06:08:48;99479.63;;;-2.31;65.92
64679;BME280;51094;53.864;27.676;2023-01-29T06:11:15;99485.50;;;-2.26;65.92
64679;BME280;51094;53.864;27.676;2023-01-29T06:13:44;99448.81;;;-2.70;65.88
64679;BME280;51094;53.864;27.676;2023-01-29T06:16:12;99450.28;;;-2.55;66.21
64679;BME280;51094;53.864;27.676;2023-01-29T06:18:40;99209.81;;;-3.94;66.43
64679;BME280;51094;53.864;27.676;2023-01-29T06:21:09;99268.63;;;-3.59;66.59
64679;BME280;51094;53.864;27.676;2023-01-29T06:23:37;99462.88;;;-2.46;66.05
64679;BME280;51094;53.864;27.676;2023-01-29T06:26:07;99361.03;;;-3.03;66.03
64679;BME280;51094;53.864;27.676;2023-01-29T06:28:34;99343.41;;;-3.14;66.19
64679;BME280;51094;53.864;27.676;2023-01-29T06:31:03;99470.50;;;-2.45;66.82
64679;BME280;51094;53.864;27.676;2023-01-29T06:33:50;99461.97;;;-2.44;67.01
64679;BME280;51094;53.864;27.676;2023-01-29T06:36:18;99195.53;;;-4.03;67.04
64679;BME280;51094;53.864;27.676;2023-01-29T06:38:44;99510.13;;;-2.27;67.57
64679;BME280;51094;53.864;27.676;2023-01-29T06:41:15;99387.97;;;-2.87;66.67
64679;BME280;51094;53.864;27.676;2023-01-29T06:43:43;99267.09;;;-3.72;66.81
64679;BME280;51094;53.864;27.676;2023-01-29T06:46:10;99467.13;;;-2.47;67.44
64679;BME280;51094;53.864;27.676;2023-01-29T06:48:37;99412.25;;;-2.66;67.18
64679;BME280;51094;53.864;27.676;2023-01-29T06:51:06;99257.47;;;-3.50;67.74
64679;BME280;51094;53.864;27.676;2023-01-29T06:53:34;99453.28;;;-2.29;67.39
64679;BME280;51094;53.864;27.676;2023-01-29T06:56:02;99397.44;;;-2.41;67.39
64679;BME280;51094;53.864;27.676;2023-01-29T06:58:29;99419.34;;;-2.31;67.27
64679;BME280;51094;53.864;27.676;2023-01-29T07:01:10;99440.16;;;-2.08;66.96
64679;BME280;51094;53.864;27.676;2023-01-29T07:03:55;99439.22;;;-2.02;67.41
64679;BME280;51094;53.864;27.676;2023-01-29T07:06:27;99475.69;;;-1.98;67.38
64679;BME280;51094;53.864;27.676;2023-01-29T07:08:54;99429.00;;;-2.01;67.50
64679;BME280;51094;53.864;27.676;2023-01-29T07:11:21;99438.59;;;-2.15;68.08
64679;BME280;51094;53.864;27.676;2023-01-29T07:13:48;99408.78;;;-2.10;67.30
64679;BME280;51094;53.864;27.676;2023-01-29T07:16:14;99476.59;;;-2.01;67.76
64679;BME280;51094;53.864;27.676;2023-01-29T07:18:41;99435.03;;;-2.05;68.00
64679;BME280;51094;53.864;27.676;2023-01-29T07:21:08;99353.47;;;-2.52;68.06
64679;BME280;51094;53.864;27.676;2023-01-29T07:23:35;99252.78;;;-3.19;68.02
64679;BME280;51094;53.864;27.676;2023-01-29T07:26:04;99421.25;;;-1.93;67.95
64679;BME280;51094;53.864;27.676;2023-01-29T07:28:35;99431.34;;;-1.87;67.71
64679;BME280;51094;53.864;27.676;2023-01-29T07:31:04;99424.41;;;-1.80;67.78
64679;BME280;51094;53.864;27.676;2023-01-29T07:33:44;99421.69;;;-1.73;67.96
64679;BME280;51094;53.864;27.676;2023-01-29T07:36:14;99413.38;;;-1.81;67.87
64679;BME280;51094;53.864;27.676;2023-01-29T07:38:48;99338.53;;;-2.21;68.12
64679;BME280;51094;53.864;27.676;2023-01-29T07:41:15;99194.13;;;-3.09;68.11
64679;BME280;51094;53.864;27.676;2023-01-29T07:43:46;99410.75;;;-1.76;67.90
64679;BME280;51094;53.864;27.676;2023-01-29T07:46:16;99396.00;;;-2.07;67.86
64679;BME280;51094;53.864;27.676;2023-01-29T07:48:43;99408.25;;;-1.79;68.55
64679;BME280;51094;53.864;27.676;2023-01-29T07:51:09;99310.63;;;-2.27;67.97
64679;BME280;51094;53.864;27.676;2023-01-29T07:53:37;99404.91;;;-1.81;68.13
64679;BME280;51094;53.864;27.676;2023-01-29T07:56:04;99232.66;;;-2.82;68.34
64679;BME280;51094;53.864;27.676;2023-01-29T07:58:31;99241.06;;;-2.77;68.52
64679;BME280;51094;53.864;27.676;2023-01-29T08:01:04;99400.56;;;-1.76;68.16
64679;BME280;51094;53.864;27.676;2023-01-29T08:03:32;99416.53;;;-1.68;68.13
64679;BME280;51094;53.864;27.676;2023-01-29T08:05:59;99350.00;;;-1.99;68.48
64679;BME280;51094;53.864;27.676;2023-01-29T08:08:26;99412.84;;;-1.53;68.77
64679;BME280;51094;53.864;27.676;2023-01-29T08:10:52;99417.91;;;-1.52;68.05
64679;BME280;51094;53.864;27.676;2023-01-29T08:13:19;99400.09;;;-1.53;68.17
64679;BME280;51094;53.864;27.676;2023-01-29T08:15:46;99375.97;;;-1.80;67.86
64679;BME280;51094;53.864;27.676;2023-01-29T08:18:13;99301.31;;;-2.30;68.32
64679;BME280;51094;53.864;27.676;2023-01-29T08:20:40;99396.00;;;-1.62;68.50
64679;BME280;51094;53.864;27.676;2023-01-29T08:23:12;99452.81;;;-2.02;68.00
64679;BME280;51094;53.864;27.676;2023-01-29T08:25:39;99399.75;;;-1.78;69.00
64679;BME280;51094;53.864;27.676;2023-01-29T08:28:06;99296.38;;;-2.38;69.15
64679;BME280;51094;53.864;27.676;2023-01-29T08:30:33;99390.06;;;-1.62;69.19
64679;BME280;51094;53.864;27.676;2023-01-29T08:33:01;99342.22;;;-1.91;69.05
64679;BME280;51094;53.864;27.676;2023-01-29T08:35:29;99285.16;;;-2.29;68.34
64679;BME280;51094;53.864;27.676;2023-01-29T08:37:58;99192.53;;;-2.68;68.31
64679;BME280;51094;53.864;27.676;2023-01-29T08:40:27;99411.13;;;-1.53;68.61
64679;BME280;51094;53.864;27.676;2023-01-29T08:43:01;99271.44;;;-2.68;68.48
64679;BME280;51094;53.864;27.676;2023-01-29T08:45:36;99359.13;;;-1.87;69.19
64679;BME280;51094;53.864;27.676;2023-01-29T08:48:06;99381.59;;;-1.63;68.70
64679;BME280;51094;53.864;27.676;2023-01-29T08:50:33;99232.75;;;-2.41;68.66
64679;BME280;51094;53.864;27.676;2023-01-29T08:53:03;99379.56;;;-1.46;68.56
64679;BME280;51094;53.864;27.676;2023-01-29T08:55:30;99376.75;;;-1.33;68.16
64679;BME280;51094;53.864;27.676;2023-01-29T08:57:57;99364.94;;;-1.38;67.97
64679;BME280;51094;53.864;27.676;2023-01-29T09:00:24;99364.16;;;-1.41;68.34
64679;BME280;51094;53.864;27.676;2023-01-29T09:02:51;99367.59;;;-1.44;68.07
64679;BME280;51094;53.864;27.676;2023-01-29T09:05:18;99351.84;;;-1.64;68.36
64679;BME280;51094;53.864;27.676;2023-01-29T09:07:47;99228.56;;;-2.43;69.07
64679;BME280;51094;53.864;27.676;2023-01-29T09:10:14;99349.00;;;-1.49;69.19
64679;BME280;51094;53.864;27.676;2023-01-29T09:12:41;99339.72;;;-1.51;69.04
64679;BME280;51094;53.864;27.676;2023-01-29T09:15:08;99196.59;;;-2.59;68.71
64679;BME280;51094;53.864;27.676;2023-01-29T09:17:35;99222.25;;;-2.24;68.96
64679;BME280;51094;53.864;27.676;2023-01-29T09:20:03;99347.84;;;-1.34;68.41
64679;BME280;51094;53.864;27.676;2023-01-29T09:22:31;99290.31;;;-1.47;68.59
64679;BME280;51094;53.864;27.676;2023-01-29T09:24:58;99288.56;;;-1.45;68.31
64679;BME280;51094;53.864;27.676;2023-01-29T09:27:25;99192.84;;;-1.98;68.55
64679;BME280;51094;53.864;27.676;2023-01-29T09:29:52;99227.84;;;-1.68;68.49
64679;BME280;51094;53.864;27.676;2023-01-29T09:32:18;99324.34;;;-1.10;68.36
64679;BME280;51094;53.864;27.676;2023-01-29T09:35:05;99185.69;;;-1.81;68.35
64679;BME280;51094;53.864;27.676;2023-01-29T09:37:32;99310.81;;;-1.13;67.99
64679;BME280;51094;53.864;27.676;2023-01-29T09:39:59;99304.16;;;-1.20;69.06
64679;BME280;51094;53.864;27.676;2023-01-29T09:42:45;99155.59;;;-2.04;68.85
64679;BME280;51094;53.864;27.676;2023-01-29T09:45:19;98847.31;;;-3.89;68.81
64679;BME280;51094;53.864;27.676;2023-01-29T09:47:47;99281.72;;;-1.83;69.53
64679;BME280;51094;53.864;27.676;2023-01-29T09:50:18;99304.00;;;-1.13;69.64
64679;BME280;51094;53.864;27.676;2023-01-29T09:53:02;99056.88;;;-2.72;69.37
64679;BME280;51094;53.864;27.676;2023-01-29T09:55:33;99211.38;;;-1.90;69.37
64679;BME280;51094;53.864;27.676;2023-01-29T09:58:11;99209.53;;;-1.47;69.72
64679;BME280;51094;53.864;27.676;2023-01-29T10:00:50;99209.41;;;-1.41;69.66
64679;BME280;51094;53.864;27.676;2023-01-29T10:03:23;99273.88;;;-0.97;69.90
64679;BME280;51094;53.864;27.676;2023-01-29T10:11:35;99184.81;;;-1.80;70.58
64679;BME280;51094;53.864;27.676;2023-01-29T10:17:09;99285.06;;;-1.03;70.03
64679;BME280;51094;53.864;27.676;2023-01-29T10:19:40;99252.19;;;-0.82;70.06
64679;BME280;51094;53.864;27.676;2023-01-29T10:24:54;99139.53;;;-1.71;69.38
64679;BME280;51094;53.864;27.676;2023-01-29T10:27:29;98968.00;;;-2.82;69.36
64679;BME280;51094;53.864;27.676;2023-01-29T10:29:58;99104.72;;;-1.72;69.92
64679;BME280;51094;53.864;27.676;2023-01-29T10:32:26;99242.94;;;-0.86;69.63
64679;BME280;51094;53.864;27.676;2023-01-29T10:34:58;99241.22;;;-0.86;69.80
64679;BME280;51094;53.864;27.676;2023-01-29T10:37:35;99186.06;;;-1.25;70.34
64679;BME280;51094;53.864;27.676;2023-01-29T10:40:41;99102.19;;;-1.73;70.08
64679;BME280;51094;53.864;27.676;2023-01-29T10:43:33;99227.84;;;-0.94;70.10
64679;BME280;51094;53.864;27.676;2023-01-29T10:46:19;99219.97;;;-0.86;70.45
64679;BME280;51094;53.864;27.676;2023-01-29T10:52:01;99208.25;;;-0.93;70.54
64679;BME280;51094;53.864;27.676;2023-01-29T11:00:21;99175.28;;;-1.01;70.70
64679;BME280;51094;53.864;27.676;2023-01-29T11:02:50;99203.69;;;-0.82;70.68
64679;BME280;51094;53.864;27.676;2023-01-29T11:08:15;99224.38;;;-0.91;71.22
64679;BME280;51094;53.864;27.676;2023-01-29T11:13:37;99092.91;;;-1.74;71.78
64679;BME280;51094;53.864;27.676;2023-01-29T11:16:07;99180.28;;;-0.98;71.70
64679;BME280;51094;53.864;27.676;2023-01-29T11:18:50;99190.47;;;-0.96;71.93
64679;BME280;51094;53.864;27.676;2023-01-29T11:21:18;99183.06;;;-1.07;72.27
64679;BME280;51094;53.864;27.676;2023-01-29T11:23:45;99135.94;;;-1.28;72.49
64679;BME280;51094;53.864;27.676;2023-01-29T11:26:16;99223.53;;;-0.92;72.31
64679;BME280;51094;53.864;27.676;2023-01-29T11:28:46;99118.31;;;-1.36;72.63
64679;BME280;51094;53.864;27.676;2023-01-29T11:31:15;99155.63;;;-0.97;73.58
64679;BME280;51094;53.864;27.676;2023-01-29T11:33:44;98872.84;;;-2.75;73.47
64679;BME280;51094;53.864;27.676;2023-01-29T11:36:28;99176.97;;;-1.02;73.85
64679;BME280;51094;53.864;27.676;2023-01-29T11:39:09;99143.41;;;-1.20;73.00
64679;BME280;51094;53.864;27.676;2023-01-29T11:41:48;99101.41;;;-1.40;73.29
64679;BME280;51094;53.864;27.676;2023-01-29T11:44:20;99172.38;;;-0.87;73.74
64679;BME280;51094;53.864;27.676;2023-01-29T11:46:48;99034.88;;;-1.64;74.08
64679;BME280;51094;53.864;27.676;2023-01-29T11:49:29;99139.31;;;-0.92;74.26
64679;BME280;51094;53.864;27.676;2023-01-29T11:51:59;99145.56;;;-1.04;75.43
64679;BME280;51094;53.864;27.676;2023-01-29T11:54:29;99152.50;;;-1.09;76.67
64679;BME280;51094;53.864;27.676;2023-01-29T11:56:57;98948.94;;;-2.27;76.50
64679;BME280;51094;53.864;27.676;2023-01-29T11:59:40;99143.81;;;-1.02;76.64
64679;BME280;51094;53.864;27.676;2023-01-29T12:02:21;99136.19;;;-1.03;76.15
64679;BME280;51094;53.864;27.676;2023-01-29T12:04:49;99124.22;;;-1.01;75.53
64679;BME280;51094;53.864;27.676;2023-01-29T12:07:17;99144.63;;;-1.01;75.16
64679;BME280;51094;53.864;27.676;2023-01-29T12:09:52;99137.13;;;-1.07;75.43
64679;BME280;51094;53.864;27.676;2023-01-29T12:12:30;99136.97;;;-1.01;75.15
64679;BME280;51094;53.864;27.676;2023-01-29T12:17:49;98961.63;;;-1.90;75.11
64679;BME280;51094;53.864;27.676;2023-01-29T12:20:23;98837.13;;;-2.71;74.78
64679;BME280;51094;53.864;27.676;2023-01-29T12:23:10;99102.03;;;-1.30;75.01
64679;BME280;51094;53.864;27.676;2023-01-29T12:29:04;99133.94;;;-0.83;75.38
64679;BME280;51094;53.864;27.676;2023-01-29T12:31:31;99132.72;;;-0.70;75.78
64679;BME280;51094;53.864;27.676;2023-01-29T12:37:10;98767.56;;;-3.05;75.47
64679;BME280;51094;53.864;27.676;2023-01-29T12:39:39;99127.94;;;-0.82;75.88
64679;BME280;51094;53.864;27.676;2023-01-29T12:42:20;99135.69;;;-0.85;76.04
64679;BME280;51094;53.864;27.676;2023-01-29T12:44:57;99131.56;;;-0.89;76.29
64679;BME280;51094;53.864;27.676;2023-01-29T12:47:46;99014.28;;;-1.57;76.30
64679;BME280;51094;53.864;27.676;2023-01-29T12:50:31;99140.16;;;-0.91;76.50
64679;BME280;51094;53.864;27.676;2023-01-29T12:53:19;99113.59;;;-0.86;76.50
64679;BME280;51094;53.864;27.676;2023-01-29T12:55:56;99090.47;;;-1.12;76.45
64679;BME280;51094;53.864;27.676;2023-01-29T12:58:47;98922.09;;;-2.07;76.20
64679;BME280;51094;53.864;27.676;2023-01-29T13:01:25;99132.19;;;-0.81;76.36
64679;BME280;51094;53.864;27.676;2023-01-29T13:04:02;99040.13;;;-1.37;76.43
64679;BME280;51094;53.864;27.676;2023-01-29T13:06:41;98839.69;;;-2.72;76.13
64679;BME280;51094;53.864;27.676;2023-01-29T13:09:16;99112.81;;;-1.20;76.30
64679;BME280;51094;53.864;27.676;2023-01-29T13:14:48;99117.41;;;-1.01;77.01
64679;BME280;51094;53.864;27.676;2023-01-29T13:17:25;99109.75;;;-1.01;77.56
64679;BME280;51094;53.864;27.676;2023-01-29T13:19:57;99131.81;;;-0.98;77.68
64679;BME280;51094;53.864;27.676;2023-01-29T13:22:34;99116.44;;;-0.96;77.60
64679;BME280;51094;53.864;27.676;2023-01-29T13:25:02;99111.34;;;-0.96;77.66
64679;BME280;51094;53.864;27.676;2023-01-29T13:27:33;98900.47;;;-2.24;77.78
64679;BME280;51094;53.864;27.676;2023-01-29T13:30:01;99108.72;;;-0.93;77.82
64679;BME280;51094;53.864;27.676;2023-01-29T13:32:34;99064.25;;;-1.17;77.89
64679;BME280;51094;53.864;27.676;2023-01-29T13:35:04;99056.22;;;-1.35;77.99
64679;BME280;51094;53.864;27.676;2023-01-29T13:37:47;99017.38;;;-1.78;78.43
64679;BME280;51094;53.864;27.676;2023-01-29T13:40:24;99028.41;;;-1.78;78.44
64679;BME280;51094;53.864;27.676;2023-01-29T13:42:56;99009.56;;;-1.72;78.79
64679;BME280;51094;53.864;27.676;2023-01-29T13:45:35;99095.50;;;-1.09;78.92
64679;BME280;51094;53.864;27.676;2023-01-29T13:50:45;98956.22;;;-2.14;78.85
64679;BME280;51094;53.864;27.676;2023-01-29T13:53:22;99098.19;;;-1.14;79.24
64679;BME280;51094;53.864;27.676;2023-01-29T13:55:50;99098.84;;;-1.07;79.57
64679;BME280;51094;53.864;27.676;2023-01-29T14:00:57;99085.53;;;-1.18;79.44
64679;BME280;51094;53.864;27.676;2023-01-29T14:05:59;99029.56;;;-1.57;79.74
64679;BME280;51094;53.864;27.676;2023-01-29T14:08:43;99126.47;;;-1.23;79.94
64679;BME280;51094;53.864;27.676;2023-01-29T14:13:42;99096.59;;;-1.18;79.90
64679;BME280;51094;53.864;27.676;2023-01-29T14:18:50;99027.03;;;-1.57;80.07
64679;BME280;51094;53.864;27.676;2023-01-29T14:21:22;98947.47;;;-2.02;80.17
64679;BME280;51094;53.864;27.676;2023-01-29T14:23:56;99129.44;;;-1.06;79.62
64679;BME280;51094;53.864;27.676;2023-01-29T14:26:31;99096.06;;;-0.98;80.07
64679;BME280;51094;53.864;27.676;2023-01-29T14:29:06;99090.16;;;-1.00;79.81
64679;BME280;51094;53.864;27.676;2023-01-29T14:34:46;98788.38;;;-3.63;80.09
64679;BME280;51094;53.864;27.676;2023-01-29T14:44:46;99068.63;;;-1.22;80.57
64679;BME280;51094;53.864;27.676;2023-01-29T14:49:55;98907.09;;;-2.17;80.58
64679;BME280;51094;53.864;27.676;2023-01-29T14:52:31;99068.66;;;-1.24;80.82
64679;BME280;51094;53.864;27.676;2023-01-29T14:55:04;98992.22;;;-1.58;81.11
64679;BME280;51094;53.864;27.676;2023-01-29T14:57:33;99059.16;;;-1.17;80.92
64679;BME280;51094;53.864;27.676;2023-01-29T15:00:04;99020.09;;;-1.52;81.09
64679;BME280;51094;53.864;27.676;2023-01-29T15:02:39;99054.44;;;-1.31;81.20
64679;BME280;51094;53.864;27.676;2023-01-29T15:05:11;99043.28;;;-1.28;81.55
64679;BME280;51094;53.864;27.676;2023-01-29T15:07:55;99038.84;;;-1.22;81.43
64679;BME280;51094;53.864;27.676;2023-01-29T15:13:03;98984.78;;;-1.67;81.26